KCAO/CAO METAR and TAF weather

Enter ICAO airport designator
Station Type Date Time Source
KCAO METAR 2020/07/12 05:55 UTC NOAA

KCAO 120555Z AUTO 33006KT 10SM CLR 22/11 A3018 RMK AO2 SLP137 60035 T02170111 10322 20172 53007


Station Type Date Time Source
KCAO Decoded METAR 2020/07/12 05:55 UTC NOAA

CLAYTON MUNICIPAL AIRPARK, NM, United States (KCAO) 36-27N 103-09W 1514M
Jul 12, 2020 - 01:55 AM EDT / 2020.07.12 0555 UTC
Wind: from the NNW (330 degrees) at 7 MPH (6 KT):0
Visibility: 10 mile(s):0
Sky conditions: clear
Temperature: 71.1 F (21.7 C)
Dew Point: 52.0 F (11.1 C)
Relative Humidity: 50%
Pressure (altimeter): 30.18 in. Hg (1022 hPa)
Pressure tendency: 0.02 inches (0.7 hPa) higher than three hours ago
ob: KCAO 120555Z AUTO 33006KT 10SM CLR 22/11 A3018 RMK AO2 SLP137 60035 T02170111 10322 20172 53007
cycle: 6

Station Type Date Time Source
KCAO TAF UTC NOAA

Error!

Example: see airport list